Time,TemperatureF,DewpointF,PressureIn,WindDirection,WindDirectionDegrees,WindSpeedMPH,WindSpeedGustMPH,Humidity,HourlyPrecipIn,Conditions,Clouds,dailyrainin,SoftwareType,DateUTC
2013-05-30 00:00:00,54.3,53.5,29.94,WNW,300,3.0,3.0,97,0.00,,,0.00,Wunderground v.1.13,2013-05-30 04:00:00,
2013-05-30 00:30:00,54.1,53.3,29.94,WNW,294,2.0,2.0,97,0.00,,,0.01,Wunderground v.1.13,2013-05-30 04:30:00,
2013-05-30 01:00:00,53.8,53.0,29.93,NW,304,2.0,3.0,97,0.00,,,0.02,Wunderground v.1.13,2013-05-30 05:00:00,
2013-05-30 01:30:00,53.7,52.9,29.92,NW,326,2.0,8.0,97,0.00,,,0.02,Wunderground v.1.13,2013-05-30 05:30:00,
2013-05-30 02:00:00,53.5,52.9,29.91,WNW,292,2.0,2.0,98,0.06,,,0.05,Wunderground v.1.13,2013-05-30 06:00:00,
2013-05-30 02:30:00,53.4,52.8,29.91,NW,323,1.0,4.0,98,0.00,,,0.05,Wunderground v.1.13,2013-05-30 06:30:00,
2013-05-30 03:30:00,53.2,52.7,29.90,NW,304,0.0,0.0,98,0.00,,,0.07,Wunderground v.1.13,2013-05-30 07:30:00,
2013-05-30 04:00:00,53.2,52.7,29.89,NW,304,0.0,0.0,98,0.00,,,0.07,Wunderground v.1.13,2013-05-30 08:00:00,
2013-05-30 04:30:00,53.1,52.6,29.89,NNW,333,1.0,2.0,98,0.00,,,0.07,Wunderground v.1.13,2013-05-30 08:30:00,
2013-05-30 05:00:00,53.1,52.6,29.90,NNW,328,1.0,1.0,98,0.00,,,0.07,Wunderground v.1.13,2013-05-30 09:00:00,
2013-05-30 05:30:00,53.1,52.8,29.91,North,360,0.0,0.0,99,0.00,,,0.07,Wunderground v.1.13,2013-05-30 09:30:00,
2013-05-30 06:00:00,53.3,53.0,29.90,WNW,294,0.0,0.0,99,0.00,,,0.07,Wunderground v.1.13,2013-05-30 10:00:00,
2013-05-30 06:30:00,53.4,53.1,29.91,WNW,293,0.0,0.0,99,0.00,,,0.07,Wunderground v.1.13,2013-05-30 10:30:00,
2013-05-30 07:00:00,53.9,53.6,29.90,WNW,300,1.0,1.0,99,0.00,,,0.07,Wunderground v.1.13,2013-05-30 11:00:00,
2013-05-30 07:30:00,54.3,54.0,29.91,NNW,333,0.0,0.0,99,0.00,,,0.07,Wunderground v.1.13,2013-05-30 11:30:00,
2013-05-30 08:00:00,55.0,54.7,29.91,NNW,333,0.0,0.0,99,0.00,,,0.07,Wunderground v.1.13,2013-05-30 12:00:00,
2013-05-30 08:30:00,56.0,55.4,29.91,NNW,333,0.0,0.0,98,0.00,,,0.07,Wunderground v.1.13,2013-05-30 12:30:00,
2013-05-30 09:00:00,56.5,55.9,29.92,East,92,1.0,2.0,98,0.00,,,0.07,Wunderground v.1.13,2013-05-30 13:00:00,
2013-05-30 09:30:00,57.4,56.8,29.92,NE,45,0.0,0.0,98,0.00,,,0.07,Wunderground v.1.13,2013-05-30 13:30:00,
2013-05-30 10:00:00,58.5,57.4,29.91,NE,42,0.0,0.0,96,0.00,,,0.07,Wunderground v.1.13,2013-05-30 14:00:00,
2013-05-30 10:30:00,60.1,59.0,29.91,NNE,22,0.0,0.0,96,0.00,,,0.07,Wunderground v.1.13,2013-05-30 14:30:00,
2013-05-30 11:00:00,62.3,59.6,29.91,NNE,26,1.0,1.0,91,0.00,,,0.07,Wunderground v.1.13,2013-05-30 15:00:00,
2013-05-30 11:30:00,65.1,61.1,29.91,SE,144,2.0,2.0,87,0.00,,,0.07,Wunderground v.1.13,2013-05-30 15:30:00,
2013-05-30 12:00:00,66.6,60.9,29.90,North,9,0.0,0.0,82,0.00,,,0.07,Wunderground v.1.13,2013-05-30 16:00:00,
2013-05-30 12:30:00,66.0,61.0,29.90,ENE,73,0.0,0.0,84,0.00,,,0.07,Wunderground v.1.13,2013-05-30 16:30:00,
2013-05-30 13:00:00,65.2,62.2,29.90,ENE,73,0.0,0.0,90,0.00,,,0.07,Wunderground v.1.13,2013-05-30 17:00:00,
2013-05-30 13:30:00,65.0,62.0,29.90,ENE,73,0.0,0.0,90,0.00,,,0.07,Wunderground v.1.13,2013-05-30 17:30:00,
2013-05-30 14:00:00,65.8,62.5,29.89,ENE,73,0.0,0.0,89,0.00,,,0.07,Wunderground v.1.13,2013-05-30 18:00:00,
2013-05-30 14:30:00,67.9,62.5,29.90,SSE,158,0.0,2.0,83,0.00,,,0.07,Wunderground v.1.13,2013-05-30 18:30:00,
2013-05-30 15:00:00,68.6,61.1,29.90,East,99,0.0,2.0,77,0.00,,,0.07,Wunderground v.1.13,2013-05-30 19:00:00,
2013-05-30 15:30:00,67.9,61.9,29.90,SE,140,0.0,0.0,81,0.00,,,0.07,Wunderground v.1.13,2013-05-30 19:30:00,
2013-05-30 16:00:00,69.7,61.8,29.91,ENE,76,1.0,2.0,76,0.00,,,0.07,Wunderground v.1.13,2013-05-30 20:00:00,
2013-05-30 16:30:00,69.6,61.3,29.91,North,355,0.0,0.0,75,0.00,,,0.07,Wunderground v.1.13,2013-05-30 20:30:00,
2013-05-30 17:00:00,70.2,61.9,29.91,NE,53,0.0,3.0,75,0.00,,,0.07,Wunderground v.1.13,2013-05-30 21:00:00,
2013-05-30 17:30:00,70.0,62.1,29.92,NNE,28,0.0,0.0,76,0.00,,,0.07,Wunderground v.1.13,2013-05-30 21:30:00,
2013-05-30 18:00:00,71.3,61.8,29.92,SE,132,0.0,0.0,72,0.00,,,0.07,Wunderground v.1.13,2013-05-30 22:00:00,
2013-05-30 18:30:00,71.6,62.1,29.92,ESE,109,0.0,0.0,72,0.00,,,0.07,Wunderground v.1.13,2013-05-30 22:30:00,
2013-05-30 19:00:00,72.0,62.1,29.93,SE,146,0.0,0.0,71,0.00,,,0.07,Wunderground v.1.13,2013-05-30 23:00:00,
2013-05-30 19:30:00,68.2,61.8,29.93,SE,146,0.0,0.0,80,0.00,,,0.07,Wunderground v.1.13,2013-05-30 23:30:00,
2013-05-30 20:00:00,63.9,60.3,29.93,SE,146,0.0,0.0,88,0.00,,,0.07,Wunderground v.1.13,2013-05-31 00:00:00,
2013-05-30 20:30:00,60.3,58.0,29.93,SSE,147,0.0,0.0,92,0.00,,,0.07,Wunderground v.1.13,2013-05-31 00:30:00,
2013-05-30 21:00:00,57.9,56.5,29.94,SSE,147,0.0,0.0,95,0.00,,,0.07,Wunderground v.1.13,2013-05-31 01:00:00,
2013-05-30 21:30:00,56.7,55.6,29.93,SSE,147,0.0,0.0,96,0.00,,,0.07,Wunderground v.1.13,2013-05-31 01:30:00,
2013-05-30 22:00:00,55.9,55.1,29.93,SSE,147,0.0,0.0,97,0.00,,,0.07,Wunderground v.1.13,2013-05-31 02:00:00,
2013-05-30 22:30:00,55.2,54.4,29.93,N/A,-737280,0.0,0.0,97,0.00,,,0.07,Wunderground v.1.13,2013-05-31 02:30:00,
2013-05-30 23:00:00,54.9,54.3,29.93,SSE,147,0.0,0.0,98,0.00,,,0.07,Wunderground v.1.13,2013-05-31 03:00:00,
2013-05-30 23:30:00,54.4,53.8,29.93,SSE,147,0.0,0.0,98,0.00,,,0.07,Wunderground v.1.13,2013-05-31 03:30:00,